• Join FlightAware (Why Join?)
  • Login
  • US Flag 
Rudolph Flight #1: Arrived! 
05:28AM EST


 

Airport Tracker/Info


-or-


 

Live Flight TrackerFlight Track Log ✈ N5060V ✈ 27-Apr-2013 ✈ KPCW - I19

Flight Track Log - Related Links

Times and Time Zones

All times are in EDT time to prevent confusion due to time zone crossing. See the N5060V flight status page for this flight to view local times or setup timezone preferences in your user account.

Time Position Orientation Groundspeed Altitude Reporting Facility
EDT Latitude Longitude Course Direction KTS MPH feet Rate Location/Type
09:18PM 41.4986 -83.0064 261° West 127 146 8,700  Level Cleveland Center
09:19PM 41.4936 -83.0478 261° West 122 140 9,500 540 Climbing Cleveland Center
09:20PM 41.4944 -83.0975 271° West 140 161 9,900 240 Climbing Cleveland Center
09:21PM 41.4953 -83.1558 271° West 159 183 10,000 360 Climbing Cleveland Center
09:22PM 41.4919 -83.2167 266° West 164 189 10,700 600 Climbing Cleveland Center
09:23PM 41.4906 -83.2722 268° West 146 168 11,300 600 Climbing Cleveland Center
09:24PM 41.4608 -83.2931 208° Southwest 133 153 12,000 300 Climbing Cleveland Center
09:25PM 41.4231 -83.3081 197° South 125 144 12,000 -60 Level Cleveland Center
09:26PM 41.3831 -83.3258 198° South 144 166 11,900 -60 Descending Cleveland Center
09:27PM 41.3450 -83.3408 196° South 149 171 11,900  Level Cleveland Center
09:28PM 41.3050 -83.3556 195° South 149 171 11,900  Level Cleveland Center
09:29PM 41.2692 -83.3733 200° South 149 171 11,900  Level Cleveland Center
09:30PM 41.2356 -83.3858 196° South 144 166 11,900  Level Cleveland Center
09:32PM 41.1914 -83.4033 197° South 142 163 11,900  Level Cleveland Center
09:33PM 41.1533 -83.4264 205° Southwest 147 169 11,900  Level Cleveland Center
09:34PM 41.1153 -83.4469 202° Southwest 147 169 11,900 -240 Level Cleveland Center
09:36PM 41.0136 -83.4850 196° South 156 180 11,100 -420 Descending Indianapolis Center
09:37PM 40.9694 -83.5033 197° South 162 186 10,500 -600 Descending Indianapolis Center
09:38PM 40.9225 -83.5206 195° South 167 192 10,000 -300 Descending Indianapolis Center
09:39PM 40.8803 -83.5386 198° South 164 189 9,900 -60 Descending Indianapolis Center
09:40PM 40.8414 -83.5542 197° South 154 177 9,900  Level Indianapolis Center
09:41PM 40.8036 -83.5700 198° South 146 168 9,900  Level Indianapolis Center
09:42PM 40.7653 -83.5847 196° South 143 165 9,900  Level Indianapolis Center
09:43PM 40.7264 -83.5992 196° South 143 165 9,900 -180 Level Indianapolis Center
09:44PM 40.6897 -83.6147 198° South 140 161 9,600 -420 Descending Indianapolis Center
09:45PM 40.6481 -83.6300 196° South 149 171 9,100 -540 Descending Indianapolis Center
09:46PM 40.6058 -83.6497 200° South 147 169 8,600 -540 Descending Indianapolis Center
09:47PM 40.5669 -83.6669 199° South 148 170 8,100 -300 Descending Indianapolis Center
09:48PM 40.5303 -83.6814 197° South 141 162 8,000 -60 Descending Indianapolis Center
09:49PM 40.4936 -83.6933 194° South 134 154 8,000 -60 Level Indianapolis Center
09:50PM 40.4553 -83.7047 193° South 133 153 7,900 -60 Descending Indianapolis Center
09:51PM 40.4228 -83.7014 176° South 129 148 7,900 -300 Level Indianapolis Center
09:52PM 40.3881 -83.7036 183° South 125 144 7,400 -540 Descending Indianapolis Center
09:53PM 40.3594 -83.7075 186° South 113 130 6,900 -540 Descending Indianapolis Center
09:54PM 40.3300 -83.7111 185° South 107 123 6,400 -540 Descending Indianapolis Center
09:55PM 40.2986 -83.7158 187° South 109 125 5,900 -540 Descending Indianapolis Center
09:56PM 40.2644 -83.7203 186° South 116 133 5,400 -600 Descending Indianapolis Center
09:57PM 40.2306 -83.7236 184° South 119 137 4,800 -600 Descending Indianapolis Center
09:58PM 40.1983 -83.7272 185° South 118 136 4,300 -420 Descending Indianapolis Center
09:59PM 40.1678 -83.7303 184° South 114 131 4,000 -180 Descending Indianapolis Center
10:00PM 40.1392 -83.7331 184° South 108 124 4,000  Level Indianapolis Center
10:01PM 40.1092 -83.7347 182° South 106 122 4,000 -120 Level Indianapolis Center
10:02PM 40.0761 -83.7336 179° South 115 132 3,800 -360 Descending Indianapolis Center
10:03PM 40.0417 -83.7156 158° South 124 143 3,300 -420 Descending Indianapolis Center
10:04PM 40.0094 -83.7006 160° South 124 143 3,000 -180 Descending Indianapolis Center
10:05PM 39.9811 -83.6861 159° South 102 117 3,000  Level Indianapolis Center
10:06PM 39.9544 -83.6772 166° South 106 122 3,000  Level Indianapolis Center
10:07PM 39.9278 -83.6986 212° Southwest 107 123 3,000 -60 Level Indianapolis Center
10:08PM 39.9097 -83.7181 220° Southwest 99 114 2,900 -300 Descending Indianapolis Center
10:09PM 39.8906 -83.7483 230° Southwest 102 117 2,400 -540 Descending Indianapolis Center
10:10PM 39.8756 -83.7817 240° Southwest 109 125 1,900 -600 Descending Indianapolis Center
10:11PM 39.8564 -83.8119 230° Southwest 132 152 1,300 -240 Descending Indianapolis Center
10:13PM 39.8369 -83.8475 235° Southwest 112 129 1,400 60 Climbing Indianapolis Center
10:15PM 39.7703 -83.9055 214° Southwest  Level FlightAware Approximate
10:22PM 39.6833 -83.9833 218° Southwest  Level FlightAware Approximate
10:23PM 39.6910 -83.9920 218° Southwest  Level Estimated